sensor_id;sensor_type;location;lat;lon;timestamp;P1;durP1;ratioP1;P2;durP2;ratioP2
17812;SDS011;9030;50.792;8.320;2023-07-28T00:00:19;6.50;;;3.30;;
17812;SDS011;9030;50.792;8.320;2023-07-28T00:02:46;5.53;;;2.88;;
17812;SDS011;9030;50.792;8.320;2023-07-28T00:05:13;9.82;;;3.38;;
17812;SDS011;9030;50.792;8.320;2023-07-28T00:07:40;7.32;;;2.95;;
17812;SDS011;9030;50.792;8.320;2023-07-28T00:10:06;5.72;;;3.40;;
17812;SDS011;9030;50.792;8.320;2023-07-28T00:12:33;3.95;;;2.38;;
17812;SDS011;9030;50.792;8.320;2023-07-28T00:15:00;5.47;;;2.85;;
17812;SDS011;9030;50.792;8.320;2023-07-28T00:17:28;4.63;;;2.38;;
17812;SDS011;9030;50.792;8.320;2023-07-28T00:19:56;3.20;;;1.75;;
17812;SDS011;9030;50.792;8.320;2023-07-28T00:22:23;5.20;;;1.98;;
17812;SDS011;9030;50.792;8.320;2023-07-28T00:24:50;5.20;;;2.10;;
17812;SDS011;9030;50.792;8.320;2023-07-28T00:27:17;4.82;;;2.00;;
17812;SDS011;9030;50.792;8.320;2023-07-28T00:29:44;6.40;;;2.75;;
17812;SDS011;9030;50.792;8.320;2023-07-28T00:32:10;4.38;;;2.03;;
17812;SDS011;9030;50.792;8.320;2023-07-28T00:34:37;4.88;;;2.30;;
17812;SDS011;9030;50.792;8.320;2023-07-28T00:37:04;3.78;;;2.55;;
17812;SDS011;9030;50.792;8.320;2023-07-28T00:39:31;5.25;;;2.55;;
17812;SDS011;9030;50.792;8.320;2023-07-28T00:41:58;5.63;;;2.33;;
17812;SDS011;9030;50.792;8.320;2023-07-28T00:44:25;4.50;;;2.00;;
17812;SDS011;9030;50.792;8.320;2023-07-28T00:46:52;3.72;;;1.60;;
17812;SDS011;9030;50.792;8.320;2023-07-28T00:49:19;4.07;;;1.98;;
17812;SDS011;9030;50.792;8.320;2023-07-28T00:51:47;5.47;;;1.95;;
17812;SDS011;9030;50.792;8.320;2023-07-28T00:54:15;3.63;;;2.25;;
17812;SDS011;9030;50.792;8.320;2023-07-28T00:56:44;3.00;;;1.48;;
17812;SDS011;9030;50.792;8.320;2023-07-28T00:59:11;7.10;;;2.60;;
17812;SDS011;9030;50.792;8.320;2023-07-28T01:01:38;4.15;;;1.90;;
17812;SDS011;9030;50.792;8.320;2023-07-28T01:04:05;4.80;;;2.05;;
17812;SDS011;9030;50.792;8.320;2023-07-28T01:06:35;4.53;;;1.67;;
17812;SDS011;9030;50.792;8.320;2023-07-28T01:09:11;4.50;;;1.95;;
17812;SDS011;9030;50.792;8.320;2023-07-28T01:11:52;3.33;;;1.40;;
17812;SDS011;9030;50.792;8.320;2023-07-28T01:14:19;8.50;;;1.70;;
17812;SDS011;9030;50.792;8.320;2023-07-28T01:16:46;4.82;;;1.48;;
17812;SDS011;9030;50.792;8.320;2023-07-28T01:19:13;2.15;;;1.35;;
17812;SDS011;9030;50.792;8.320;2023-07-28T01:21:42;2.88;;;1.38;;
17812;SDS011;9030;50.792;8.320;2023-07-28T01:24:14;5.03;;;1.13;;
17812;SDS011;9030;50.792;8.320;2023-07-28T01:26:47;3.17;;;1.20;;
17812;SDS011;9030;50.792;8.320;2023-07-28T01:29:16;2.55;;;1.08;;
17812;SDS011;9030;50.792;8.320;2023-07-28T01:31:47;1.92;;;0.80;;
17812;SDS011;9030;50.792;8.320;2023-07-28T01:34:13;2.58;;;0.80;;
17812;SDS011;9030;50.792;8.320;2023-07-28T01:36:41;2.17;;;1.00;;
17812;SDS011;9030;50.792;8.320;2023-07-28T01:39:07;3.78;;;0.77;;
17812;SDS011;9030;50.792;8.320;2023-07-28T01:41:34;2.80;;;0.88;;
17812;SDS011;9030;50.792;8.320;2023-07-28T01:44:03;4.30;;;0.90;;
17812;SDS011;9030;50.792;8.320;2023-07-28T01:46:32;3.10;;;1.10;;
17812;SDS011;9030;50.792;8.320;2023-07-28T01:48:59;1.20;;;0.52;;
17812;SDS011;9030;50.792;8.320;2023-07-28T01:51:26;3.85;;;1.13;;
17812;SDS011;9030;50.792;8.320;2023-07-28T01:53:53;3.08;;;1.00;;
17812;SDS011;9030;50.792;8.320;2023-07-28T01:56:20;2.75;;;0.93;;
17812;SDS011;9030;50.792;8.320;2023-07-28T01:58:50;4.53;;;1.08;;
17812;SDS011;9030;50.792;8.320;2023-07-28T02:01:19;3.35;;;0.90;;
17812;SDS011;9030;50.792;8.320;2023-07-28T02:03:46;5.72;;;0.93;;
17812;SDS011;9030;50.792;8.320;2023-07-28T02:06:13;3.17;;;1.00;;
17812;SDS011;9030;50.792;8.320;2023-07-28T02:08:40;1.17;;;0.82;;
17812;SDS011;9030;50.792;8.320;2023-07-28T02:11:07;4.07;;;1.10;;
17812;SDS011;9030;50.792;8.320;2023-07-28T02:13:35;2.88;;;1.10;;
17812;SDS011;9030;50.792;8.320;2023-07-28T02:16:01;5.72;;;1.83;;
17812;SDS011;9030;50.792;8.320;2023-07-28T02:18:30;6.40;;;1.88;;
17812;SDS011;9030;50.792;8.320;2023-07-28T02:20:57;5.68;;;1.17;;
17812;SDS011;9030;50.792;8.320;2023-07-28T02:23:24;3.13;;;1.40;;
17812;SDS011;9030;50.792;8.320;2023-07-28T02:25:51;5.93;;;1.33;;
17812;SDS011;9030;50.792;8.320;2023-07-28T02:28:18;3.13;;;1.10;;
17812;SDS011;9030;50.792;8.320;2023-07-28T02:30:45;7.82;;;1.80;;
17812;SDS011;9030;50.792;8.320;2023-07-28T02:33:12;1.60;;;0.95;;
17812;SDS011;9030;50.792;8.320;2023-07-28T02:35:41;4.20;;;1.50;;
17812;SDS011;9030;50.792;8.320;2023-07-28T02:38:08;8.75;;;1.70;;
17812;SDS011;9030;50.792;8.320;2023-07-28T02:40:36;4.88;;;1.30;;
17812;SDS011;9030;50.792;8.320;2023-07-28T02:43:03;4.63;;;1.40;;
17812;SDS011;9030;50.792;8.320;2023-07-28T02:45:30;7.72;;;2.30;;
17812;SDS011;9030;50.792;8.320;2023-07-28T02:47:57;8.68;;;1.83;;
17812;SDS011;9030;50.792;8.320;2023-07-28T02:50:27;2.78;;;1.10;;
17812;SDS011;9030;50.792;8.320;2023-07-28T02:52:55;3.40;;;1.42;;
17812;SDS011;9030;50.792;8.320;2023-07-28T02:55:23;3.17;;;1.58;;
17812;SDS011;9030;50.792;8.320;2023-07-28T02:57:50;2.95;;;1.35;;
17812;SDS011;9030;50.792;8.320;2023-07-28T03:00:19;3.95;;;1.20;;
17812;SDS011;9030;50.792;8.320;2023-07-28T03:02:47;6.63;;;1.52;;
17812;SDS011;9030;50.792;8.320;2023-07-28T03:05:14;3.08;;;1.80;;
17812;SDS011;9030;50.792;8.320;2023-07-28T03:07:41;2.45;;;1.80;;
17812;SDS011;9030;50.792;8.320;2023-07-28T03:10:10;5.10;;;1.40;;
17812;SDS011;9030;50.792;8.320;2023-07-28T03:12:41;3.33;;;1.65;;
17812;SDS011;9030;50.792;8.320;2023-07-28T03:15:08;7.50;;;1.52;;
17812;SDS011;9030;50.792;8.320;2023-07-28T03:17:35;2.17;;;1.23;;
17812;SDS011;9030;50.792;8.320;2023-07-28T03:20:02;6.60;;;1.63;;
17812;SDS011;9030;50.792;8.320;2023-07-28T03:22:30;3.30;;;1.40;;
17812;SDS011;9030;50.792;8.320;2023-07-28T03:24:57;4.10;;;1.35;;
17812;SDS011;9030;50.792;8.320;2023-07-28T03:27:26;2.83;;;0.90;;
17812;SDS011;9030;50.792;8.320;2023-07-28T03:29:53;2.65;;;1.48;;
17812;SDS011;9030;50.792;8.320;2023-07-28T03:32:21;2.35;;;1.20;;
17812;SDS011;9030;50.792;8.320;2023-07-28T03:34:48;4.25;;;1.02;;
17812;SDS011;9030;50.792;8.320;2023-07-28T03:37:18;1.27;;;0.70;;
17812;SDS011;9030;50.792;8.320;2023-07-28T03:39:45;3.88;;;1.00;;
17812;SDS011;9030;50.792;8.320;2023-07-28T03:42:12;4.90;;;1.10;;
17812;SDS011;9030;50.792;8.320;2023-07-28T03:44:41;1.42;;;0.75;;
17812;SDS011;9030;50.792;8.320;2023-07-28T03:47:11;3.00;;;0.90;;
17812;SDS011;9030;50.792;8.320;2023-07-28T03:49:39;3.75;;;0.70;;
17812;SDS011;9030;50.792;8.320;2023-07-28T03:52:06;1.65;;;0.63;;
17812;SDS011;9030;50.792;8.320;2023-07-28T03:54:33;2.88;;;1.08;;
17812;SDS011;9030;50.792;8.320;2023-07-28T03:57:00;1.42;;;0.50;;
17812;SDS011;9030;50.792;8.320;2023-07-28T03:59:27;2.15;;;0.50;;
17812;SDS011;9030;50.792;8.320;2023-07-28T04:01:55;3.63;;;1.10;;
17812;SDS011;9030;50.792;8.320;2023-07-28T04:04:23;2.35;;;0.55;;
17812;SDS011;9030;50.792;8.320;2023-07-28T04:06:50;3.28;;;0.82;;
17812;SDS011;9030;50.792;8.320;2023-07-28T04:09:18;2.78;;;0.90;;
17812;SDS011;9030;50.792;8.320;2023-07-28T04:11:46;7.93;;;1.25;;
17812;SDS011;9030;50.792;8.320;2023-07-28T04:14:13;7.32;;;1.05;;
17812;SDS011;9030;50.792;8.320;2023-07-28T04:16:40;5.22;;;0.70;;
17812;SDS011;9030;50.792;8.320;2023-07-28T04:19:11;2.80;;;0.65;;
17812;SDS011;9030;50.792;8.320;2023-07-28T04:21:38;1.45;;;0.47;;
17812;SDS011;9030;50.792;8.320;2023-07-28T04:24:07;0.52;;;0.40;;
17812;SDS011;9030;50.792;8.320;2023-07-28T04:26:35;5.53;;;0.60;;
17812;SDS011;9030;50.792;8.320;2023-07-28T04:29:02;2.70;;;0.63;;
17812;SDS011;9030;50.792;8.320;2023-07-28T04:31:32;2.97;;;0.90;;
17812;SDS011;9030;50.792;8.320;2023-07-28T04:33:59;2.65;;;0.68;;
17812;SDS011;9030;50.792;8.320;2023-07-28T04:36:30;0.82;;;0.55;;
17812;SDS011;9030;50.792;8.320;2023-07-28T04:38:57;2.00;;;0.70;;
17812;SDS011;9030;50.792;8.320;2023-07-28T04:41:24;2.33;;;0.65;;
17812;SDS011;9030;50.792;8.320;2023-07-28T04:43:51;3.47;;;0.50;;
17812;SDS011;9030;50.792;8.320;2023-07-28T04:46:18;3.90;;;0.50;;
17812;SDS011;9030;50.792;8.320;2023-07-28T04:48:46;2.75;;;0.88;;
17812;SDS011;9030;50.792;8.320;2023-07-28T04:51:13;1.15;;;0.60;;
17812;SDS011;9030;50.792;8.320;2023-07-28T04:53:41;1.75;;;0.60;;
17812;SDS011;9030;50.792;8.320;2023-07-28T04:56:08;4.30;;;1.00;;
17812;SDS011;9030;50.792;8.320;2023-07-28T04:58:35;2.10;;;0.80;;
17812;SDS011;9030;50.792;8.320;2023-07-28T05:01:02;4.80;;;0.82;;
17812;SDS011;9030;50.792;8.320;2023-07-28T05:03:30;5.90;;;0.80;;
17812;SDS011;9030;50.792;8.320;2023-07-28T05:05:57;2.45;;;0.65;;
17812;SDS011;9030;50.792;8.320;2023-07-28T05:08:24;2.53;;;1.00;;
17812;SDS011;9030;50.792;8.320;2023-07-28T05:10:53;2.50;;;0.90;;
17812;SDS011;9030;50.792;8.320;2023-07-28T05:13:20;2.03;;;0.93;;
17812;SDS011;9030;50.792;8.320;2023-07-28T05:15:47;6.45;;;1.17;;
17812;SDS011;9030;50.792;8.320;2023-07-28T05:18:14;2.22;;;0.80;;
17812;SDS011;9030;50.792;8.320;2023-07-28T05:20:41;1.88;;;0.75;;
17812;SDS011;9030;50.792;8.320;2023-07-28T05:23:08;2.53;;;0.75;;
17812;SDS011;9030;50.792;8.320;2023-07-28T05:25:35;2.38;;;0.80;;
17812;SDS011;9030;50.792;8.320;2023-07-28T05:28:03;2.72;;;0.77;;
17812;SDS011;9030;50.792;8.320;2023-07-28T05:30:36;0.88;;;0.50;;
17812;SDS011;9030;50.792;8.320;2023-07-28T05:33:03;2.13;;;0.65;;
17812;SDS011;9030;50.792;8.320;2023-07-28T05:35:30;1.83;;;0.60;;
17812;SDS011;9030;50.792;8.320;2023-07-28T05:37:57;1.40;;;0.60;;
17812;SDS011;9030;50.792;8.320;2023-07-28T05:40:24;1.73;;;0.70;;
17812;SDS011;9030;50.792;8.320;2023-07-28T05:42:51;1.35;;;0.52;;
17812;SDS011;9030;50.792;8.320;2023-07-28T05:45:20;1.75;;;0.40;;
17812;SDS011;9030;50.792;8.320;2023-07-28T05:47:47;0.65;;;0.50;;
17812;SDS011;9030;50.792;8.320;2023-07-28T05:50:13;3.50;;;0.50;;
17812;SDS011;9030;50.792;8.320;2023-07-28T05:52:40;2.35;;;0.60;;
17812;SDS011;9030;50.792;8.320;2023-07-28T05:55:08;1.23;;;0.20;;
17812;SDS011;9030;50.792;8.320;2023-07-28T05:57:35;2.40;;;0.63;;
17812;SDS011;9030;50.792;8.320;2023-07-28T06:00:01;0.45;;;0.30;;
17812;SDS011;9030;50.792;8.320;2023-07-28T06:02:30;1.17;;;0.30;;
17812;SDS011;9030;50.792;8.320;2023-07-28T06:04:57;0.73;;;0.30;;
17812;SDS011;9030;50.792;8.320;2023-07-28T06:07:24;3.13;;;0.50;;
17812;SDS011;9030;50.792;8.320;2023-07-28T06:09:52;1.90;;;0.50;;
17812;SDS011;9030;50.792;8.320;2023-07-28T06:12:19;2.50;;;0.50;;
17812;SDS011;9030;50.792;8.320;2023-07-28T06:14:46;1.50;;;0.50;;
17812;SDS011;9030;50.792;8.320;2023-07-28T06:17:13;1.45;;;0.55;;
17812;SDS011;9030;50.792;8.320;2023-07-28T06:19:41;2.53;;;0.38;;
17812;SDS011;9030;50.792;8.320;2023-07-28T06:22:08;0.43;;;0.30;;
17812;SDS011;9030;50.792;8.320;2023-07-28T06:24:35;0.60;;;0.38;;
17812;SDS011;9030;50.792;8.320;2023-07-28T06:27:02;2.72;;;0.40;;
17812;SDS011;9030;50.792;8.320;2023-07-28T06:29:33;2.13;;;0.30;;
17812;SDS011;9030;50.792;8.320;2023-07-28T06:32:00;5.15;;;0.73;;
17812;SDS011;9030;50.792;8.320;2023-07-28T06:34:27;1.73;;;0.60;;
17812;SDS011;9030;50.792;8.320;2023-07-28T06:36:57;1.58;;;0.50;;
17812;SDS011;9030;50.792;8.320;2023-07-28T06:39:24;3.05;;;0.50;;
17812;SDS011;9030;50.792;8.320;2023-07-28T06:41:52;1.45;;;0.40;;
17812;SDS011;9030;50.792;8.320;2023-07-28T06:44:19;2.17;;;0.35;;
17812;SDS011;9030;50.792;8.320;2023-07-28T06:46:45;1.30;;;0.45;;
17812;SDS011;9030;50.792;8.320;2023-07-28T06:49:13;2.22;;;0.35;;
17812;SDS011;9030;50.792;8.320;2023-07-28T06:51:39;3.05;;;0.50;;
17812;SDS011;9030;50.792;8.320;2023-07-28T06:54:07;3.50;;;0.68;;
17812;SDS011;9030;50.792;8.320;2023-07-28T06:56:37;1.23;;;0.40;;
17812;SDS011;9030;50.792;8.320;2023-07-28T06:59:04;1.05;;;0.40;;
17812;SDS011;9030;50.792;8.320;2023-07-28T07:01:32;3.20;;;0.80;;
17812;SDS011;9030;50.792;8.320;2023-07-28T07:04:00;3.45;;;0.47;;
17812;SDS011;9030;50.792;8.320;2023-07-28T07:06:27;1.48;;;0.70;;
17812;SDS011;9030;50.792;8.320;2023-07-28T07:08:54;5.20;;;0.55;;
17812;SDS011;9030;50.792;8.320;2023-07-28T07:11:23;1.75;;;0.40;;
17812;SDS011;9030;50.792;8.320;2023-07-28T07:13:50;1.45;;;0.40;;
17812;SDS011;9030;50.792;8.320;2023-07-28T07:16:17;2.40;;;0.57;;
17812;SDS011;9030;50.792;8.320;2023-07-28T07:18:47;3.55;;;0.50;;
17812;SDS011;9030;50.792;8.320;2023-07-28T07:21:14;4.53;;;0.60;;
17812;SDS011;9030;50.792;8.320;2023-07-28T07:23:40;2.72;;;1.05;;
17812;SDS011;9030;50.792;8.320;2023-07-28T07:26:07;1.85;;;0.60;;
17812;SDS011;9030;50.792;8.320;2023-07-28T07:28:36;5.78;;;0.57;;
17812;SDS011;9030;50.792;8.320;2023-07-28T07:31:03;1.27;;;0.38;;
17812;SDS011;9030;50.792;8.320;2023-07-28T07:33:31;0.77;;;0.40;;
17812;SDS011;9030;50.792;8.320;2023-07-28T07:35:58;0.73;;;0.20;;
17812;SDS011;9030;50.792;8.320;2023-07-28T07:38:24;4.30;;;1.02;;
17812;SDS011;9030;50.792;8.320;2023-07-28T07:40:53;3.20;;;0.30;;
17812;SDS011;9030;50.792;8.320;2023-07-28T07:43:20;1.45;;;0.40;;
17812;SDS011;9030;50.792;8.320;2023-07-28T07:45:48;0.73;;;0.30;;
17812;SDS011;9030;50.792;8.320;2023-07-28T07:48:19;0.68;;;0.40;;
17812;SDS011;9030;50.792;8.320;2023-07-28T07:50:46;1.90;;;0.65;;
17812;SDS011;9030;50.792;8.320;2023-07-28T07:53:15;1.00;;;0.30;;
17812;SDS011;9030;50.792;8.320;2023-07-28T07:55:47;1.60;;;0.30;;
17812;SDS011;9030;50.792;8.320;2023-07-28T07:58:15;0.20;;;0.20;;
17812;SDS011;9030;50.792;8.320;2023-07-28T08:00:42;1.15;;;0.50;;
17812;SDS011;9030;50.792;8.320;2023-07-28T08:03:11;0.73;;;0.30;;
17812;SDS011;9030;50.792;8.320;2023-07-28T08:05:38;0.15;;;0.10;;
17812;SDS011;9030;50.792;8.320;2023-07-28T08:08:05;1.73;;;0.30;;
17812;SDS011;9030;50.792;8.320;2023-07-28T08:10:32;3.13;;;0.30;;
17812;SDS011;9030;50.792;8.320;2023-07-28T08:13:00;1.75;;;0.50;;
17812;SDS011;9030;50.792;8.320;2023-07-28T08:15:29;2.15;;;0.75;;
17812;SDS011;9030;50.792;8.320;2023-07-28T08:17:58;1.45;;;0.40;;
17812;SDS011;9030;50.792;8.320;2023-07-28T08:20:27;0.10;;;0.10;;
17812;SDS011;9030;50.792;8.320;2023-07-28T08:22:54;3.80;;;0.40;;
17812;SDS011;9030;50.792;8.320;2023-07-28T08:25:21;0.40;;;0.30;;
17812;SDS011;9030;50.792;8.320;2023-07-28T08:27:48;0.30;;;0.30;;
17812;SDS011;9030;50.792;8.320;2023-07-28T08:30:15;0.20;;;0.20;;
17812;SDS011;9030;50.792;8.320;2023-07-28T08:32:42;0.40;;;0.30;;
17812;SDS011;9030;50.792;8.320;2023-07-28T08:35:09;0.55;;;0.30;;
17812;SDS011;9030;50.792;8.320;2023-07-28T08:37:37;2.05;;;0.30;;
17812;SDS011;9030;50.792;8.320;2023-07-28T08:40:04;1.52;;;0.50;;
17812;SDS011;9030;50.792;8.320;2023-07-28T08:42:35;1.90;;;0.47;;
17812;SDS011;9030;50.792;8.320;2023-07-28T08:45:03;0.75;;;0.32;;
17812;SDS011;9030;50.792;8.320;2023-07-28T08:47:34;0.85;;;0.40;;
17812;SDS011;9030;50.792;8.320;2023-07-28T08:50:01;0.57;;;0.38;;
17812;SDS011;9030;50.792;8.320;2023-07-28T08:52:28;2.05;;;0.40;;
17812;SDS011;9030;50.792;8.320;2023-07-28T08:54:56;0.30;;;0.20;;
17812;SDS011;9030;50.792;8.320;2023-07-28T08:57:23;1.75;;;0.30;;
17812;SDS011;9030;50.792;8.320;2023-07-28T08:59:50;0.25;;;0.17;;
17812;SDS011;9030;50.792;8.320;2023-07-28T09:02:18;0.95;;;0.38;;
17812;SDS011;9030;50.792;8.320;2023-07-28T09:04:46;0.30;;;0.20;;
17812;SDS011;9030;50.792;8.320;2023-07-28T09:07:14;1.60;;;0.50;;
17812;SDS011;9030;50.792;8.320;2023-07-28T09:09:41;0.20;;;0.20;;
17812;SDS011;9030;50.792;8.320;2023-07-28T09:12:09;1.85;;;0.40;;
17812;SDS011;9030;50.792;8.320;2023-07-28T09:14:36;0.77;;;0.50;;
17812;SDS011;9030;50.792;8.320;2023-07-28T09:17:07;0.60;;;0.40;;
17812;SDS011;9030;50.792;8.320;2023-07-28T09:19:48;0.90;;;0.40;;
17812;SDS011;9030;50.792;8.320;2023-07-28T09:22:16;0.60;;;0.38;;
17812;SDS011;9030;50.792;8.320;2023-07-28T09:24:44;2.53;;;0.63;;
17812;SDS011;9030;50.792;8.320;2023-07-28T09:27:20;0.70;;;0.40;;
17812;SDS011;9030;50.792;8.320;2023-07-28T09:29:48;1.20;;;0.57;;
17812;SDS011;9030;50.792;8.320;2023-07-28T09:32:26;1.10;;;1.00;;
17812;SDS011;9030;50.792;8.320;2023-07-28T09:35:05;3.28;;;0.98;;
17812;SDS011;9030;50.792;8.320;2023-07-28T09:37:34;2.70;;;1.38;;
17812;SDS011;9030;50.792;8.320;2023-07-28T09:40:14;2.45;;;1.25;;
17812;SDS011;9030;50.792;8.320;2023-07-28T09:42:44;2.25;;;1.25;;
17812;SDS011;9030;50.792;8.320;2023-07-28T09:45:15;2.25;;;1.33;;
17812;SDS011;9030;50.792;8.320;2023-07-28T09:47:43;1.02;;;0.93;;
17812;SDS011;9030;50.792;8.320;2023-07-28T09:50:22;1.38;;;1.10;;
17812;SDS011;9030;50.792;8.320;2023-07-28T09:52:53;1.45;;;1.33;;
17812;SDS011;9030;50.792;8.320;2023-07-28T09:55:23;2.38;;;1.50;;
17812;SDS011;9030;50.792;8.320;2023-07-28T09:57:52;4.28;;;1.70;;
17812;SDS011;9030;50.792;8.320;2023-07-28T10:00:22;1.83;;;1.67;;
17812;SDS011;9030;50.792;8.320;2023-07-28T10:02:49;2.08;;;1.30;;
17812;SDS011;9030;50.792;8.320;2023-07-28T10:05:16;2.10;;;1.45;;
17812;SDS011;9030;50.792;8.320;2023-07-28T10:07:43;3.20;;;1.70;;
17812;SDS011;9030;50.792;8.320;2023-07-28T10:10:11;2.13;;;1.80;;
17812;SDS011;9030;50.792;8.320;2023-07-28T10:12:40;3.28;;;2.20;;
17812;SDS011;9030;50.792;8.320;2023-07-28T10:15:11;2.20;;;1.70;;
17812;SDS011;9030;50.792;8.320;2023-07-28T10:17:43;3.97;;;1.88;;
17812;SDS011;9030;50.792;8.320;2023-07-28T10:23:01;2.42;;;1.45;;
17812;SDS011;9030;50.792;8.320;2023-07-28T10:25:31;4.22;;;1.27;;
17812;SDS011;9030;50.792;8.320;2023-07-28T10:27:59;1.45;;;1.00;;
17812;SDS011;9030;50.792;8.320;2023-07-28T10:30:28;2.92;;;1.00;;
17812;SDS011;9030;50.792;8.320;2023-07-28T10:33:01;1.13;;;1.00;;
17812;SDS011;9030;50.792;8.320;2023-07-28T10:35:29;2.00;;;1.13;;
17812;SDS011;9030;50.792;8.320;2023-07-28T10:37:57;3.55;;;1.35;;
17812;SDS011;9030;50.792;8.320;2023-07-28T10:40:26;0.77;;;0.77;;
17812;SDS011;9030;50.792;8.320;2023-07-28T10:42:54;1.20;;;0.75;;
17812;SDS011;9030;50.792;8.320;2023-07-28T10:45:22;3.08;;;1.10;;
17812;SDS011;9030;50.792;8.320;2023-07-28T10:47:52;1.90;;;0.60;;
17812;SDS011;9030;50.792;8.320;2023-07-28T10:50:21;0.95;;;0.70;;
17812;SDS011;9030;50.792;8.320;2023-07-28T10:52:48;2.90;;;0.90;;
17812;SDS011;9030;50.792;8.320;2023-07-28T10:55:16;1.02;;;0.55;;
17812;SDS011;9030;50.792;8.320;2023-07-28T10:57:45;0.95;;;0.70;;
17812;SDS011;9030;50.792;8.320;2023-07-28T11:00:14;1.60;;;0.60;;
17812;SDS011;9030;50.792;8.320;2023-07-28T11:02:41;1.02;;;0.50;;
17812;SDS011;9030;50.792;8.320;2023-07-28T11:05:11;1.60;;;0.50;;
17812;SDS011;9030;50.792;8.320;2023-07-28T11:07:40;0.80;;;0.70;;
17812;SDS011;9030;50.792;8.320;2023-07-28T11:10:08;2.60;;;0.80;;
17812;SDS011;9030;50.792;8.320;2023-07-28T11:12:38;2.97;;;0.82;;
17812;SDS011;9030;50.792;8.320;2023-07-28T11:15:07;1.02;;;0.70;;
17812;SDS011;9030;50.792;8.320;2023-07-28T11:17:36;1.92;;;0.55;;
17812;SDS011;9030;50.792;8.320;2023-07-28T11:20:04;1.95;;;0.52;;
17812;SDS011;9030;50.792;8.320;2023-07-28T11:22:37;1.10;;;0.70;;
17812;SDS011;9030;50.792;8.320;2023-07-28T11:25:05;2.38;;;0.73;;
17812;SDS011;9030;50.792;8.320;2023-07-28T11:27:34;1.20;;;0.57;;
17812;SDS011;9030;50.792;8.320;2023-07-28T11:30:01;1.85;;;0.40;;
17812;SDS011;9030;50.792;8.320;2023-07-28T11:32:29;4.70;;;0.73;;
17812;SDS011;9030;50.792;8.320;2023-07-28T11:35:01;0.70;;;0.45;;
17812;SDS011;9030;50.792;8.320;2023-07-28T11:37:30;1.77;;;0.50;;
17812;SDS011;9030;50.792;8.320;2023-07-28T11:40:00;1.38;;;0.70;;
17812;SDS011;9030;50.792;8.320;2023-07-28T11:42:31;2.63;;;0.55;;
17812;SDS011;9030;50.792;8.320;2023-07-28T11:44:58;1.65;;;0.70;;
17812;SDS011;9030;50.792;8.320;2023-07-28T11:47:25;3.78;;;0.88;;
17812;SDS011;9030;50.792;8.320;2023-07-28T11:49:52;2.05;;;0.60;;
17812;SDS011;9030;50.792;8.320;2023-07-28T11:52:19;0.40;;;0.40;;
17812;SDS011;9030;50.792;8.320;2023-07-28T11:54:46;1.33;;;0.60;;
17812;SDS011;9030;50.792;8.320;2023-07-28T11:57:14;2.78;;;0.65;;
17812;SDS011;9030;50.792;8.320;2023-07-28T11:59:41;0.82;;;0.55;;
17812;SDS011;9030;50.792;8.320;2023-07-28T12:02:09;1.23;;;0.57;;
17812;SDS011;9030;50.792;8.320;2023-07-28T12:04:36;1.95;;;0.85;;
17812;SDS011;9030;50.792;8.320;2023-07-28T12:07:05;1.23;;;0.50;;
17812;SDS011;9030;50.792;8.320;2023-07-28T12:09:33;0.38;;;0.38;;
17812;SDS011;9030;50.792;8.320;2023-07-28T12:12:15;2.50;;;0.50;;
17812;SDS011;9030;50.792;8.320;2023-07-28T12:14:43;0.30;;;0.30;;
17812;SDS011;9030;50.792;8.320;2023-07-28T12:17:11;0.50;;;0.38;;
17812;SDS011;9030;50.792;8.320;2023-07-28T12:19:40;1.98;;;0.22;;
17812;SDS011;9030;50.792;8.320;2023-07-28T12:22:07;0.80;;;0.30;;
17812;SDS011;9030;50.792;8.320;2023-07-28T12:24:34;1.10;;;0.60;;
17812;SDS011;9030;50.792;8.320;2023-07-28T12:27:01;0.57;;;0.30;;
17812;SDS011;9030;50.792;8.320;2023-07-28T12:29:29;2.33;;;0.50;;
17812;SDS011;9030;50.792;8.320;2023-07-28T12:31:55;2.70;;;0.50;;
17812;SDS011;9030;50.792;8.320;2023-07-28T12:34:22;2.45;;;0.30;;
17812;SDS011;9030;50.792;8.320;2023-07-28T12:36:49;1.92;;;0.68;;
17812;SDS011;9030;50.792;8.320;2023-07-28T12:39:16;1.23;;;0.50;;
17812;SDS011;9030;50.792;8.320;2023-07-28T12:41:42;0.60;;;0.50;;
17812;SDS011;9030;50.792;8.320;2023-07-28T12:44:09;0.73;;;0.63;;
17812;SDS011;9030;50.792;8.320;2023-07-28T12:46:37;2.35;;;0.60;;
17812;SDS011;9030;50.792;8.320;2023-07-28T12:49:05;3.20;;;0.52;;
17812;SDS011;9030;50.792;8.320;2023-07-28T12:51:32;0.50;;;0.30;;
17812;SDS011;9030;50.792;8.320;2023-07-28T12:53:58;1.27;;;0.50;;
17812;SDS011;9030;50.792;8.320;2023-07-28T12:56:25;2.40;;;0.70;;
17812;SDS011;9030;50.792;8.320;2023-07-28T12:58:52;0.55;;;0.40;;
17812;SDS011;9030;50.792;8.320;2023-07-28T13:01:18;1.63;;;0.60;;
17812;SDS011;9030;50.792;8.320;2023-07-28T13:03:46;0.50;;;0.40;;
17812;SDS011;9030;50.792;8.320;2023-07-28T13:06:13;0.73;;;0.40;;
17812;SDS011;9030;50.792;8.320;2023-07-28T13:08:40;1.70;;;0.80;;
17812;SDS011;9030;50.792;8.320;2023-07-28T13:11:06;4.80;;;1.00;;
17812;SDS011;9030;50.792;8.320;2023-07-28T13:13:33;2.70;;;0.90;;
17812;SDS011;9030;50.792;8.320;2023-07-28T13:16:00;5.47;;;0.85;;
17812;SDS011;9030;50.792;8.320;2023-07-28T13:18:26;0.95;;;0.50;;
17812;SDS011;9030;50.792;8.320;2023-07-28T13:20:56;2.67;;;0.60;;
17812;SDS011;9030;50.792;8.320;2023-07-28T13:23:22;1.80;;;0.60;;
17812;SDS011;9030;50.792;8.320;2023-07-28T13:25:49;2.28;;;0.60;;
17812;SDS011;9030;50.792;8.320;2023-07-28T13:28:16;2.67;;;0.50;;
17812;SDS011;9030;50.792;8.320;2023-07-28T13:30:43;1.08;;;0.50;;
17812;SDS011;9030;50.792;8.320;2023-07-28T13:33:10;0.40;;;0.40;;
17812;SDS011;9030;50.792;8.320;2023-07-28T13:35:37;1.50;;;0.70;;
17812;SDS011;9030;50.792;8.320;2023-07-28T13:38:05;4.85;;;0.85;;
17812;SDS011;9030;50.792;8.320;2023-07-28T13:40:31;0.52;;;0.45;;
17812;SDS011;9030;50.792;8.320;2023-07-28T13:42:58;1.65;;;0.55;;
17812;SDS011;9030;50.792;8.320;2023-07-28T13:45:24;1.85;;;0.60;;
17812;SDS011;9030;50.792;8.320;2023-07-28T13:47:51;5.03;;;0.73;;
17812;SDS011;9030;50.792;8.320;2023-07-28T13:50:18;0.95;;;0.63;;
17812;SDS011;9030;50.792;8.320;2023-07-28T13:52:45;2.75;;;1.00;;
17812;SDS011;9030;50.792;8.320;2023-07-28T13:55:13;7.13;;;1.50;;
17812;SDS011;9030;50.792;8.320;2023-07-28T13:57:39;2.53;;;0.85;;
17812;SDS011;9030;50.792;8.320;2023-07-28T14:00:07;3.15;;;0.98;;
17812;SDS011;9030;50.792;8.320;2023-07-28T14:02:35;3.58;;;1.02;;
17812;SDS011;9030;50.792;8.320;2023-07-28T14:05:01;1.30;;;0.73;;
17812;SDS011;9030;50.792;8.320;2023-07-28T14:07:28;2.35;;;0.93;;
17812;SDS011;9030;50.792;8.320;2023-07-28T14:09:55;1.67;;;0.90;;
17812;SDS011;9030;50.792;8.320;2023-07-28T14:12:23;1.25;;;0.70;;
17812;SDS011;9030;50.792;8.320;2023-07-28T14:14:50;1.77;;;0.65;;
17812;SDS011;9030;50.792;8.320;2023-07-28T14:17:16;2.47;;;0.95;;
17812;SDS011;9030;50.792;8.320;2023-07-28T14:19:43;1.20;;;0.73;;
17812;SDS011;9030;50.792;8.320;2023-07-28T14:22:10;1.00;;;0.90;;
17812;SDS011;9030;50.792;8.320;2023-07-28T14:24:36;1.30;;;0.80;;
17812;SDS011;9030;50.792;8.320;2023-07-28T14:27:04;2.20;;;1.15;;
17812;SDS011;9030;50.792;8.320;2023-07-28T14:29:32;6.25;;;1.33;;
17812;SDS011;9030;50.792;8.320;2023-07-28T14:31:59;3.47;;;1.23;;
17812;SDS011;9030;50.792;8.320;2023-07-28T14:34:25;2.65;;;1.38;;
17812;SDS011;9030;50.792;8.320;2023-07-28T14:36:52;2.17;;;1.52;;
17812;SDS011;9030;50.792;8.320;2023-07-28T14:39:19;2.13;;;1.67;;
17812;SDS011;9030;50.792;8.320;2023-07-28T14:41:46;4.80;;;2.10;;
17812;SDS011;9030;50.792;8.320;2023-07-28T14:44:12;4.15;;;2.10;;
17812;SDS011;9030;50.792;8.320;2023-07-28T14:46:40;3.83;;;2.03;;
17812;SDS011;9030;50.792;8.320;2023-07-28T14:49:07;4.40;;;2.40;;
17812;SDS011;9030;50.792;8.320;2023-07-28T14:51:34;4.13;;;2.53;;
17812;SDS011;9030;50.792;8.320;2023-07-28T14:54:00;4.18;;;2.42;;
17812;SDS011;9030;50.792;8.320;2023-07-28T14:56:27;4.45;;;3.08;;
17812;SDS011;9030;50.792;8.320;2023-07-28T14:58:54;3.95;;;2.40;;
17812;SDS011;9030;50.792;8.320;2023-07-28T15:01:23;2.80;;;2.17;;
17812;SDS011;9030;50.792;8.320;2023-07-28T15:03:51;6.70;;;2.67;;
17812;SDS011;9030;50.792;8.320;2023-07-28T15:06:17;4.55;;;2.88;;